Time;durP1;ratioP1;P1;durP2;ratioP2;P2;SDS_P1;SDS_P2;PMS_P1;PMS_P2;Temp;Humidity;BMP_temperature;BMP_pressure;BME280_temperature;BME280_humidity;BME280_pressure;Samples;Min_cycle;Max_cycle;Signal;HPM_P1;HPM_P2
2022/04/16 00:01:42;;;;;;;20.30;17.05;;;10.50;73.90;;;;;;4972510;28;20181;-86
2022/04/16 00:04:09;;;;;;;18.95;16.50;;;10.60;73.70;;;;;;4974502;28;20640;-87
2022/04/16 00:06:36;;;;;;;19.65;17.35;;;10.50;73.80;;;;;;4975245;28;20173;-87
2022/04/16 00:09:02;;;;;;;19.00;16.73;;;10.50;74.00;;;;;;4974941;28;20925;-88
2022/04/16 00:11:28;;;;;;;20.35;16.38;;;10.30;74.10;;;;;;4959534;28;20168;-87
2022/04/16 00:13:54;;;;;;;20.30;17.07;;;10.30;74.70;;;;;;4973712;28;20227;-88
2022/04/16 00:16:19;;;;;;;17.13;15.33;;;10.30;74.80;;;;;;4973513;28;20656;-88
2022/04/16 00:18:45;;;;;;;19.13;16.37;;;10.20;74.80;;;;;;4974173;28;20558;-88
2022/04/16 00:21:12;;;;;;;19.10;16.93;;;10.30;74.90;;;;;;4983452;28;20188;-88
2022/04/16 00:23:40;;;;;;;19.13;15.68;;;10.40;74.80;;;;;;4993104;28;20510;-87
2022/04/16 00:26:07;;;;;;;21.60;16.55;;;10.30;74.90;;;;;;4978210;28;20659;-87
2022/04/16 00:28:35;;;;;;;22.33;18.08;;;10.30;74.90;;;;;;4977161;28;20643;-87
2022/04/16 00:31:01;;;;;;;21.75;17.58;;;10.20;74.90;;;;;;4976948;28;20220;-87
2022/04/16 00:33:27;;;;;;;21.85;17.05;;;10.20;75.00;;;;;;4978331;28;20215;-87
2022/04/16 00:35:53;;;;;;;22.20;17.40;;;10.20;75.00;;;;;;4977392;28;20191;-87
2022/04/16 00:38:19;;;;;;;20.10;15.93;;;10.20;75.00;;;;;;4976727;28;20226;-87
2022/04/16 00:40:45;;;;;;;22.00;16.80;;;10.40;74.80;;;;;;4993657;28;20814;-87
2022/04/16 00:43:21;;;;;;;23.30;17.45;;;10.30;74.60;;;;;;4976853;28;20266;-87
2022/04/16 00:45:47;;;;;;;19.15;16.67;;;10.20;74.60;;;;;;4994111;28;20199;-87
2022/04/16 00:48:13;;;;;;;20.10;16.50;;;10.20;74.70;;;;;;4979793;28;20183;-87
2022/04/16 00:50:40;;;;;;;18.83;15.80;;;10.20;75.20;;;;;;4997822;28;20231;-87
2022/04/16 00:53:06;;;;;;;21.50;17.40;;;10.10;75.20;;;;;;4987249;28;20466;-87
2022/04/16 00:55:37;;;;;;;25.85;17.88;;;10.20;75.30;;;;;;5007434;28;20596;-86
2022/04/16 00:58:03;;;;;;;23.95;17.35;;;10.00;75.50;;;;;;5009753;28;20188;-87
2022/04/16 01:00:35;;;;;;;20.38;17.02;;;10.00;75.80;;;;;;5005087;28;20208;-87
2022/04/16 01:03:01;;;;;;;18.73;15.85;;;10.00;75.80;;;;;;4993562;28;20179;-86
2022/04/16 01:05:27;;;;;;;20.77;16.33;;;10.10;75.90;;;;;;4978104;28;20184;-87
2022/04/16 01:07:59;;;;;;;20.57;17.03;;;10.10;76.00;;;;;;4992797;28;20412;-87
2022/04/16 01:10:28;;;;;;;20.48;16.05;;;10.10;76.00;;;;;;4976461;28;20227;-87
2022/04/16 01:12:59;;;;;;;21.13;17.45;;;10.10;75.70;;;;;;4977847;28;20763;-87
2022/04/16 01:15:27;;;;;;;21.60;17.10;;;9.90;75.90;;;;;;4997570;28;20200;-87
2022/04/16 01:17:54;;;;;;;25.38;18.08;;;9.90;76.10;;;;;;4993015;28;20212;-89
2022/04/16 01:20:20;;;;;;;23.00;17.98;;;10.00;76.10;;;;;;4992378;28;20687;-87
2022/04/16 01:22:48;;;;;;;20.90;17.15;;;9.90;76.00;;;;;;4975577;28;20727;-88
2022/04/16 01:25:13;;;;;;;24.92;17.55;;;9.90;76.20;;;;;;4992080;28;20197;-87
2022/04/16 01:27:43;;;;;;;20.73;17.77;;;9.90;76.30;;;;;;4977406;28;20283;-87
2022/04/16 01:30:13;;;;;;;23.98;18.40;;;9.90;76.40;;;;;;4991998;28;20443;-88
2022/04/16 01:32:43;;;;;;;22.00;17.80;;;9.80;76.60;;;;;;4976533;28;20208;-87
2022/04/16 01:35:09;;;;;;;19.90;16.58;;;9.90;76.60;;;;;;4991806;28;20214;-88
2022/04/16 01:37:35;;;;;;;19.15;16.23;;;9.90;76.30;;;;;;4977285;28;20187;-87
2022/04/16 01:40:03;;;;;;;23.13;18.80;;;9.90;76.40;;;;;;4975797;28;20195;-88
2022/04/16 01:42:29;;;;;;;22.33;17.40;;;9.80;76.30;;;;;;4991090;28;20180;-87
2022/04/16 01:45:03;;;;;;;22.97;17.10;;;9.80;76.70;;;;;;4992467;28;20701;-88
2022/04/16 01:47:29;;;;;;;24.35;18.08;;;9.80;76.60;;;;;;4991747;28;20480;-88
2022/04/16 01:49:56;;;;;;;29.08;18.70;;;9.70;76.70;;;;;;4991743;28;20267;-88
2022/04/16 01:52:23;;;;;;;22.58;17.45;;;9.70;76.70;;;;;;4975152;28;20212;-88
2022/04/16 01:54:50;;;;;;;20.45;16.55;;;9.60;77.00;;;;;;4991983;28;20553;-87
2022/04/16 01:57:18;;;;;;;26.92;18.75;;;9.60;77.00;;;;;;4976667;28;20691;-87
2022/04/16 01:59:46;;;;;;;25.40;19.42;;;9.60;77.10;;;;;;4991647;28;20231;-86
2022/04/16 02:02:12;;;;;;;20.92;17.45;;;9.70;77.10;;;;;;4975966;28;20264;-87
2022/04/16 02:04:38;;;;;;;20.13;16.25;;;9.70;77.00;;;;;;4993009;28;20184;-87
2022/04/16 02:07:04;;;;;;;25.43;19.50;;;9.80;76.90;;;;;;4991802;28;20187;-87
2022/04/16 02:09:29;;;;;;;25.00;17.70;;;9.70;76.70;;;;;;4991341;28;20887;-87
2022/04/16 02:11:55;;;;;;;25.83;19.53;;;9.70;76.70;;;;;;4991591;28;20557;-87
2022/04/16 02:14:21;;;;;;;24.07;17.30;;;9.70;76.80;;;;;;4991857;28;20450;-88
2022/04/16 02:16:48;;;;;;;21.97;17.50;;;9.70;76.70;;;;;;4975637;28;20450;-87
2022/04/16 02:19:14;;;;;;;26.25;19.63;;;9.60;77.00;;;;;;4992840;28;20446;-87
2022/04/16 02:21:41;;;;;;;23.63;18.15;;;9.60;77.20;;;;;;4991469;28;20180;-85
2022/04/16 02:24:07;;;;;;;25.50;20.42;;;9.50;77.10;;;;;;4977293;28;20176;-87
2022/04/16 02:26:33;;;;;;;22.50;18.13;;;9.50;77.40;;;;;;4994696;28;20207;-87
2022/04/16 02:28:59;;;;;;;24.47;18.90;;;9.50;77.40;;;;;;4966919;28;20276;-87
2022/04/16 02:31:26;;;;;;;23.17;17.75;;;9.40;77.40;;;;;;4974191;28;20858;-86
2022/04/16 02:33:55;;;;;;;25.00;17.58;;;9.40;77.40;;;;;;4974114;28;20219;-87
2022/04/16 02:36:25;;;;;;;24.55;18.95;;;9.40;77.60;;;;;;4971958;28;20272;-87
2022/04/16 02:38:54;;;;;;;26.13;17.98;;;9.50;77.30;;;;;;4957357;28;20169;-86
2022/04/16 02:41:21;;;;;;;27.25;19.20;;;9.50;77.30;;;;;;4972256;28;20176;-87
2022/04/16 02:43:47;;;;;;;22.60;18.17;;;9.50;77.20;;;;;;4957256;29;20200;-87
2022/04/16 02:48:57;;;;;;;25.88;17.77;;;9.50;77.10;;;;;;4976339;28;21009;-87
2022/04/16 02:51:22;;;;;;;26.87;18.67;;;9.50;77.10;;;;;;4991193;28;20175;-87
2022/04/16 02:53:49;;;;;;;24.67;18.33;;;9.50;76.90;;;;;;4956563;28;20690;-87
2022/04/16 02:56:15;;;;;;;26.10;19.30;;;9.40;77.10;;;;;;4973453;28;20480;-87
2022/04/16 02:58:41;;;;;;;25.08;19.48;;;9.40;77.20;;;;;;4958618;29;20185;-87
2022/04/16 03:01:07;;;;;;;24.90;18.60;;;9.30;77.30;;;;;;4975026;28;20609;-86
2022/04/16 03:03:33;;;;;;;24.25;18.58;;;9.40;77.40;;;;;;4965225;28;20432;-87
2022/04/16 03:05:59;;;;;;;25.10;19.97;;;9.30;77.40;;;;;;4975012;28;20559;-88
2022/04/16 03:08:25;;;;;;;24.70;19.33;;;9.30;77.50;;;;;;4975017;28;20484;-87
2022/04/16 03:10:57;;;;;;;27.05;20.90;;;9.40;77.40;;;;;;4974882;28;20220;-88
2022/04/16 03:13:23;;;;;;;25.60;19.33;;;9.20;77.50;;;;;;4990088;28;20212;-87
2022/04/16 03:18:34;;;;;;;25.13;19.17;;;9.20;77.80;;;;;;4972638;29;20203;-85
2022/04/16 03:21:00;;;;;;;27.03;20.00;;;9.20;77.80;;;;;;4960660;28;20196;-87
2022/04/16 03:23:26;;;;;;;25.50;20.20;;;9.10;78.10;;;;;;4956125;28;20184;-87
2022/04/16 03:25:53;;;;;;;31.63;21.70;;;9.10;78.20;;;;;;4970945;28;20308;-87
2022/04/16 03:28:22;;;;;;;29.50;19.67;;;9.10;78.30;;;;;;4970734;28;20199;-87
2022/04/16 03:30:48;;;;;;;27.00;20.75;;;9.00;78.40;;;;;;4958799;28;20676;-87
2022/04/16 03:33:14;;;;;;;32.03;21.93;;;9.00;78.40;;;;;;4975831;28;20302;-87
2022/04/16 03:35:40;;;;;;;29.40;21.00;;;9.10;78.60;;;;;;4975645;28;20331;-87
2022/04/16 03:38:05;;;;;;;31.33;22.80;;;9.00;78.60;;;;;;4976140;28;20184;-87
2022/04/16 03:40:31;;;;;;;26.90;20.50;;;9.00;78.70;;;;;;4976363;28;20204;-87
2022/04/16 03:43:01;;;;;;;33.30;23.03;;;9.00;78.80;;;;;;4970604;28;20431;-87
2022/04/16 03:45:28;;;;;;;27.42;20.25;;;9.00;78.90;;;;;;4971470;28;20192;-87
2022/04/16 03:47:55;;;;;;;33.67;22.45;;;9.00;78.90;;;;;;4985953;28;20656;-87
2022/04/16 03:50:22;;;;;;;28.30;21.45;;;9.00;78.90;;;;;;4989725;28;20557;-88
2022/04/16 03:52:50;;;;;;;29.13;21.88;;;9.00;78.90;;;;;;4977584;28;20287;-87
2022/04/16 04:00:47;;;;;;;110.35;90.18;;;8.80;79.40;;;;;;4955997;28;20199;-87
2022/04/16 04:03:14;;;;;;;101.57;87.75;;;8.80;80.10;;;;;;4970350;28;20194;-87
2022/04/16 04:05:40;;;;;;;90.60;75.47;;;8.90;79.50;;;;;;4956286;28;20173;-87
2022/04/16 04:08:08;;;;;;;81.20;68.13;;;8.90;79.50;;;;;;4971267;28;20184;-87
2022/04/16 04:10:35;;;;;;;88.93;69.00;;;8.90;79.50;;;;;;4958329;29;20200;-86
2022/04/16 04:13:03;;;;;;;61.55;50.10;;;8.80;79.40;;;;;;5001847;28;20207;-85
2022/04/16 04:15:29;;;;;;;53.35;38.45;;;8.70;79.90;;;;;;4979019;28;20223;-87
2022/04/16 04:17:59;;;;;;;47.80;32.05;;;8.80;79.80;;;;;;4956941;28;20208;-86
2022/04/16 04:20:26;;;;;;;44.92;29.45;;;8.80;79.90;;;;;;4972138;28;20207;-86
2022/04/16 04:22:52;;;;;;;37.45;27.35;;;8.70;80.00;;;;;;4970572;28;20208;-87
2022/04/16 04:25:18;;;;;;;33.17;24.00;;;8.70;80.10;;;;;;4971301;28;20195;-87
2022/04/16 04:27:44;;;;;;;41.03;26.30;;;8.70;80.30;;;;;;4971326;28;20425;-86
2022/04/16 04:30:11;;;;;;;33.30;23.73;;;8.70;80.30;;;;;;4971202;28;20553;-86
2022/04/16 04:32:37;;;;;;;29.52;22.95;;;8.80;80.20;;;;;;4971330;28;20501;-86
2022/04/16 04:35:04;;;;;;;30.38;24.42;;;8.80;79.90;;;;;;4973889;28;20708;-87
2022/04/16 04:37:29;;;;;;;30.27;23.70;;;8.80;80.00;;;;;;4971388;28;20181;-86
2022/04/16 04:39:55;;;;;;;32.80;23.73;;;8.80;79.80;;;;;;4971407;28;20197;-86
2022/04/16 04:42:24;;;;;;;29.30;22.73;;;8.80;80.00;;;;;;4956402;28;20184;-87
2022/04/16 04:44:50;;;;;;;28.30;21.33;;;8.80;79.80;;;;;;4954847;29;20436;-86
2022/04/16 04:47:16;;;;;;;36.95;23.85;;;8.80;79.80;;;;;;4964695;28;20199;-86
2022/04/16 04:49:41;;;;;;;35.20;24.73;;;8.70;80.10;;;;;;4993557;28;20239;-86
2022/04/16 04:52:07;;;;;;;34.00;23.30;;;8.80;80.00;;;;;;4995180;28;20215;-86
2022/04/16 04:54:33;;;;;;;36.53;23.97;;;8.80;79.80;;;;;;4977071;28;20202;-86
2022/04/16 04:56:59;;;;;;;32.13;23.47;;;8.80;80.00;;;;;;4976823;28;20219;-86
2022/04/16 04:59:25;;;;;;;31.17;23.38;;;8.80;80.10;;;;;;4977734;28;20993;-87
2022/04/16 05:01:50;;;;;;;28.93;22.53;;;8.80;80.10;;;;;;4976140;28;20180;-87
2022/04/16 05:04:16;;;;;;;31.80;25.13;;;8.80;80.10;;;;;;4976903;28;20179;-87
2022/04/16 05:06:42;;;;;;;31.97;22.93;;;8.70;80.30;;;;;;4976703;28;20419;-88
2022/04/16 05:09:09;;;;;;;34.50;25.73;;;8.80;80.30;;;;;;4977941;28;20196;-87
2022/04/16 05:11:50;;;;;;;40.45;23.88;;;8.80;80.30;;;;;;4978780;28;20164;-87
2022/04/16 05:14:16;;;;;;;32.90;24.23;;;8.80;80.30;;;;;;4977446;28;20183;-87
2022/04/16 05:16:42;;;;;;;34.30;24.37;;;8.90;80.10;;;;;;4961706;28;20557;-87
2022/04/16 05:19:08;;;;;;;34.10;23.60;;;8.90;79.80;;;;;;4973948;28;20196;-87
2022/04/16 05:21:33;;;;;;;28.90;22.37;;;8.90;79.60;;;;;;4974327;28;20553;-88
2022/04/16 05:24:00;;;;;;;37.47;22.67;;;8.90;79.70;;;;;;4974321;28;20181;-87
2022/04/16 05:26:26;;;;;;;32.55;24.55;;;9.00;79.60;;;;;;4980680;28;20424;-86
2022/04/16 05:28:51;;;;;;;37.23;25.27;;;8.90;79.50;;;;;;4989772;28;20346;-87
2022/04/16 05:31:20;;;;;;;31.03;22.70;;;8.90;80.00;;;;;;4984147;28;20431;-87
2022/04/16 05:36:30;;;;;;;31.73;22.25;;;9.00;80.20;;;;;;4958382;29;20172;-87
2022/04/16 05:38:55;;;;;;;33.47;20.93;;;9.60;79.20;;;;;;4972868;28;20200;-87
2022/04/16 05:41:21;;;;;;;28.83;20.00;;;10.40;76.50;;;;;;4958054;28;20172;-87
2022/04/16 05:43:48;;;;;;;26.40;20.90;;;10.90;73.80;;;;;;4972064;28;20180;-87
2022/04/16 05:46:14;;;;;;;22.02;18.67;;;11.30;71.70;;;;;;4957995;28;20187;-87
2022/04/16 05:48:39;;;;;;;24.20;19.07;;;11.70;70.10;;;;;;4973214;28;20184;-87
2022/04/16 05:51:05;;;;;;;23.90;20.87;;;12.20;68.60;;;;;;4972899;28;20215;-87
2022/04/16 05:53:31;;;;;;;23.47;20.93;;;12.60;66.60;;;;;;4974594;28;20207;-87
2022/04/16 05:55:58;;;;;;;24.00;20.17;;;12.90;65.50;;;;;;4994824;28;20427;-87
2022/04/16 05:58:24;;;;;;;24.85;21.63;;;13.30;64.30;;;;;;4995523;28;20451;-87
2022/04/16 06:00:50;;;;;;;30.02;20.95;;;13.60;62.50;;;;;;4991963;28;20410;-87
2022/04/16 06:03:16;;;;;;;26.83;21.00;;;13.50;61.90;;;;;;4994267;28;20230;-87
2022/04/16 06:05:42;;;;;;;24.15;20.58;;;13.20;62.40;;;;;;4978904;28;20251;-87
2022/04/16 06:08:08;;;;;;;24.60;19.37;;;13.10;63.70;;;;;;4993637;28;20266;-88
2022/04/16 06:10:36;;;;;;;26.23;21.50;;;13.50;62.40;;;;;;4976878;28;20208;-87
2022/04/16 06:13:02;;;;;;;27.08;20.95;;;13.80;61.50;;;;;;4975181;28;20204;-87
2022/04/16 06:15:27;;;;;;;25.03;22.33;;;14.30;60.20;;;;;;4991774;28;20191;-88
2022/04/16 06:17:53;;;;;;;23.43;19.77;;;14.60;59.20;;;;;;4991289;28;20443;-88
2022/04/16 06:20:19;;;;;;;22.33;19.83;;;15.30;57.80;;;;;;4991395;28;20258;-87
2022/04/16 06:22:45;;;;;;;24.60;18.70;;;15.20;56.30;;;;;;4990746;28;20190;-88
2022/04/16 06:25:10;;;;;;;24.07;20.10;;;15.80;55.30;;;;;;4991059;28;20191;-87
2022/04/16 06:27:40;;;;;;;24.30;20.50;;;16.10;54.40;;;;;;4991280;28;20220;-87
2022/04/16 06:30:10;;;;;;;21.05;18.77;;;16.30;52.90;;;;;;4975192;28;20219;-87
2022/04/16 06:32:36;;;;;;;27.10;22.40;;;16.00;53.20;;;;;;4975447;28;20215;-87
2022/04/16 06:35:05;;;;;;;25.60;20.40;;;16.20;53.00;;;;;;4977641;28;20184;-87
2022/04/16 06:37:35;;;;;;;24.42;19.65;;;16.20;53.10;;;;;;4976524;28;20179;-88
2022/04/16 06:40:02;;;;;;;22.77;20.38;;;16.30;52.60;;;;;;4975820;28;20258;-88
2022/04/16 06:42:28;;;;;;;21.92;19.52;;;16.10;52.50;;;;;;4976670;28;20190;-87
2022/04/16 06:44:54;;;;;;;26.23;20.23;;;15.70;53.30;;;;;;4978392;28;20578;-87
2022/04/16 06:47:20;;;;;;;25.75;22.05;;;16.00;53.30;;;;;;4975800;28;20837;-87
2022/04/16 06:49:46;;;;;;;26.63;22.00;;;15.90;53.20;;;;;;4993645;28;20229;-87
2022/04/16 06:52:12;;;;;;;24.07;20.20;;;15.60;53.70;;;;;;4990192;28;20201;-87
2022/04/16 06:54:38;;;;;;;26.73;22.05;;;15.00;55.20;;;;;;4981239;28;20423;-87
2022/04/16 06:57:05;;;;;;;22.65;20.25;;;14.50;56.80;;;;;;4978881;28;20200;-87
2022/04/16 06:59:30;;;;;;;31.63;22.30;;;14.00;58.70;;;;;;4988196;28;20230;-88
2022/04/16 07:01:56;;;;;;;30.80;23.07;;;13.60;60.90;;;;;;4990243;28;20232;-87
2022/04/16 07:04:22;;;;;;;27.07;23.23;;;13.00;62.00;;;;;;4967525;28;20416;-87
2022/04/16 07:06:47;;;;;;;30.17;23.23;;;12.50;64.20;;;;;;4973029;28;20186;-87
2022/04/16 07:09:13;;;;;;;26.70;20.87;;;12.20;65.70;;;;;;4958204;28;20533;-88
2022/04/16 07:11:39;;;;;;;29.27;23.80;;;11.90;67.30;;;;;;4957472;28;20169;-88
2022/04/16 07:14:04;;;;;;;30.20;22.57;;;11.80;68.40;;;;;;4958459;29;20205;-88
2022/04/16 07:16:30;;;;;;;26.47;20.30;;;11.70;68.70;;;;;;4988207;28;20275;-88
2022/04/16 07:18:56;;;;;;;32.43;22.47;;;11.60;69.00;;;;;;4991296;28;20254;-87
2022/04/16 07:21:22;;;;;;;32.70;23.87;;;11.60;69.50;;;;;;4990520;28;20187;-86
2022/04/16 07:23:47;;;;;;;28.17;20.70;;;11.50;70.00;;;;;;4970290;28;20632;-86
2022/04/16 07:26:13;;;;;;;25.33;19.87;;;11.60;70.00;;;;;;4980986;28;20443;-85
2022/04/16 07:28:39;;;;;;;27.33;21.27;;;11.50;70.20;;;;;;4982563;28;20193;-86
2022/04/16 07:31:08;;;;;;;30.37;21.80;;;11.50;70.60;;;;;;4979792;28;20432;-86
2022/04/16 07:33:33;;;;;;;28.27;20.75;;;11.70;70.20;;;;;;4972443;28;20212;-85
2022/04/16 07:35:59;;;;;;;27.20;20.97;;;11.70;70.10;;;;;;4956113;28;20611;-86
2022/04/16 07:38:25;;;;;;;28.13;22.40;;;11.80;69.70;;;;;;4979058;28;20199;-86
2022/04/16 07:40:51;;;;;;;24.50;21.30;;;11.80;69.70;;;;;;4984031;28;20207;-85
2022/04/16 07:43:16;;;;;;;27.70;21.80;;;11.90;69.30;;;;;;4972015;28;20180;-85
2022/04/16 07:45:42;;;;;;;36.37;22.37;;;12.00;69.20;;;;;;4957109;28;20681;-87
2022/04/16 07:48:08;;;;;;;26.63;21.60;;;12.00;69.10;;;;;;4987230;28;20423;-86
2022/04/16 07:50:34;;;;;;;28.87;22.50;;;12.00;68.80;;;;;;4990663;28;20250;-86
2022/04/16 07:52:59;;;;;;;25.60;19.80;;;12.00;68.80;;;;;;4978125;28;20204;-87
2022/04/16 07:55:28;;;;;;;27.57;21.07;;;12.10;68.70;;;;;;4958471;28;20180;-86
2022/04/16 07:57:54;;;;;;;23.58;17.90;;;12.10;68.80;;;;;;4970282;28;20204;-86
2022/04/16 08:00:21;;;;;;;26.10;19.83;;;12.20;68.60;;;;;;4971219;28;20201;-86
2022/04/16 08:02:47;;;;;;;27.98;19.48;;;12.10;68.60;;;;;;4970598;28;20247;-85
2022/04/16 08:05:16;;;;;;;28.27;19.10;;;12.20;68.70;;;;;;4973301;28;20226;-88
2022/04/16 08:07:41;;;;;;;24.75;19.20;;;12.30;68.50;;;;;;4989975;28;20420;-85
2022/04/16 08:10:08;;;;;;;27.53;20.17;;;12.40;68.10;;;;;;4974575;28;20223;-85
2022/04/16 08:12:33;;;;;;;23.25;18.15;;;12.50;67.70;;;;;;4976240;28;20203;-85
2022/04/16 08:14:59;;;;;;;21.37;16.23;;;12.50;67.10;;;;;;4976034;28;20180;-87
2022/04/16 08:17:25;;;;;;;21.67;18.23;;;12.60;66.70;;;;;;4975950;28;20186;-85
2022/04/16 08:19:54;;;;;;;23.60;16.50;;;12.60;66.40;;;;;;4976484;28;20191;-87
2022/04/16 08:22:21;;;;;;;23.02;17.80;;;12.70;66.00;;;;;;4977656;28;20474;-86
2022/04/16 08:27:36;;;;;;;20.40;17.20;;;12.80;65.40;;;;;;4979755;28;20202;-85
2022/04/16 08:30:02;;;;;;;22.40;17.55;;;12.90;65.50;;;;;;4977398;28;20277;-85
2022/04/16 08:32:28;;;;;;;22.55;15.98;;;13.00;65.30;;;;;;4979300;28;20804;-85
2022/04/16 08:34:53;;;;;;;26.53;17.53;;;13.00;64.70;;;;;;4979357;28;20206;-85
2022/04/16 08:37:19;;;;;;;19.17;15.40;;;13.00;64.30;;;;;;4980213;28;20172;-85
2022/04/16 08:39:45;;;;;;;20.47;15.70;;;13.00;63.80;;;;;;4997740;28;20439;-86
2022/04/16 08:42:11;;;;;;;22.53;17.27;;;13.00;63.70;;;;;;4982784;28;20415;-85
2022/04/16 08:44:49;;;;;;;20.45;15.13;;;13.10;63.90;;;;;;4997015;28;20426;-85
2022/04/16 08:47:15;;;;;;;17.55;14.38;;;13.10;63.80;;;;;;4983122;28;20192;-85
2022/04/16 08:49:43;;;;;;;18.50;15.37;;;13.30;63.90;;;;;;4996984;28;20239;-87
2022/04/16 08:52:10;;;;;;;20.27;14.50;;;13.40;61.80;;;;;;4996926;28;20502;-85
2022/04/16 08:54:38;;;;;;;15.52;13.25;;;13.30;62.00;;;;;;4980852;28;20183;-86
2022/04/16 08:57:05;;;;;;;18.73;13.95;;;13.40;61.60;;;;;;4998316;28;20263;-86
2022/04/16 08:59:51;;;;;;;17.38;13.23;;;13.40;61.60;;;;;;4998669;28;20255;-88
2022/04/16 09:02:22;;;;;;;15.05;12.40;;;13.50;61.50;;;;;;4997732;28;20203;-86
2022/04/16 09:04:49;;;;;;;20.30;14.60;;;13.60;61.40;;;;;;4997693;28;20211;-86
2022/04/16 09:07:15;;;;;;;19.08;14.55;;;13.70;61.50;;;;;;4982076;28;20188;-85
2022/04/16 09:09:42;;;;;;;18.13;14.48;;;13.80;61.30;;;;;;4995527;28;20204;-84
2022/04/16 09:12:20;;;;;;;21.35;12.10;;;13.90;60.90;;;;;;4978815;28;20183;-85
2022/04/16 09:14:46;;;;;;;17.15;11.65;;;13.90;58.90;;;;;;4994212;28;20238;-87
2022/04/16 09:17:16;;;;;;;16.20;12.40;;;13.90;57.80;;;;;;4994289;28;20172;-87
2022/04/16 09:19:43;;;;;;;15.52;12.07;;;13.90;58.00;;;;;;4995567;28;20210;-87
2022/04/16 09:22:09;;;;;;;13.35;11.70;;;14.00;58.60;;;;;;4997490;28;20252;-87
2022/04/16 09:24:47;;;;;;;13.43;10.63;;;14.10;58.90;;;;;;4995849;28;20183;-87
2022/04/16 09:27:13;;;;;;;11.60;8.93;;;14.10;57.50;;;;;;4994879;28;20738;-87
2022/04/16 09:29:40;;;;;;;9.70;8.50;;;14.10;56.80;;;;;;4993180;28;20211;-87
2022/04/16 09:32:07;;;;;;;9.90;7.15;;;14.20;55.90;;;;;;4993025;28;20423;-87
2022/04/16 09:34:33;;;;;;;10.23;8.02;;;14.30;54.40;;;;;;4977668;28;20180;-87
2022/04/16 09:37:12;;;;;;;9.50;7.90;;;14.40;54.40;;;;;;4993180;28;20559;-87
2022/04/16 09:39:37;;;;;;;8.68;7.78;;;14.50;54.70;;;;;;4996296;28;20207;-88
2022/04/16 09:42:04;;;;;;;9.33;8.10;;;14.50;54.80;;;;;;4998075;28;20176;-87
2022/04/16 09:44:29;;;;;;;9.30;7.88;;;14.50;54.00;;;;;;4998353;28;20666;-87
2022/04/16 09:46:56;;;;;;;8.13;6.87;;;14.60;53.90;;;;;;4987598;28;20196;-85
2022/04/16 09:49:23;;;;;;;7.25;6.35;;;14.70;53.70;;;;;;4976116;28;20216;-85
2022/04/16 09:51:50;;;;;;;8.27;6.40;;;14.80;52.10;;;;;;4982039;28;20196;-86
2022/04/16 09:54:17;;;;;;;7.88;7.05;;;14.80;52.10;;;;;;4993309;28;20298;-87
2022/04/16 09:56:48;;;;;;;9.98;8.23;;;14.80;52.20;;;;;;4992362;28;20184;-87
2022/04/16 09:59:16;;;;;;;9.30;7.55;;;15.00;52.60;;;;;;4991867;28;20331;-86
2022/04/16 10:01:47;;;;;;;8.65;6.80;;;15.00;51.80;;;;;;4976568;28;20184;-86
2022/04/16 10:04:17;;;;;;;7.50;6.30;;;15.00;51.80;;;;;;4991894;28;20258;-86
2022/04/16 10:06:47;;;;;;;10.05;7.00;;;15.10;51.00;;;;;;4992069;28;20181;-86
2022/04/16 10:09:22;;;;;;;9.00;6.90;;;15.10;50.60;;;;;;4976121;28;20204;-87
2022/04/16 10:15:02;;;;;;;9.07;6.85;;;15.10;50.70;;;;;;4977173;28;20179;-87
2022/04/16 10:17:43;;;;;;;8.15;6.88;;;15.10;50.20;;;;;;4992144;28;20184;-87
2022/04/16 10:20:17;;;;;;;9.85;7.30;;;15.10;50.20;;;;;;4977069;28;20194;-87
2022/04/16 10:22:57;;;;;;;10.93;8.20;;;15.10;50.70;;;;;;4991366;28;20218;-89
2022/04/16 10:25:34;;;;;;;8.27;7.32;;;15.00;50.40;;;;;;4991719;28;20219;-87
2022/04/16 10:28:12;;;;;;;8.23;6.80;;;15.10;50.40;;;;;;4975439;28;20183;-87
2022/04/16 10:30:50;;;;;;;10.15;7.60;;;15.30;50.10;;;;;;4991414;28;20585;-87
2022/04/16 10:33:25;;;;;;;8.90;7.80;;;15.30;49.40;;;;;;4991708;28;20236;-88
2022/04/16 10:36:05;;;;;;;8.73;7.53;;;15.40;49.40;;;;;;4992297;28;20251;-88
2022/04/16 10:38:40;;;;;;;9.00;8.05;;;15.40;49.60;;;;;;4977650;28;20194;-87
2022/04/16 10:41:26;;;;;;;10.48;8.45;;;15.40;49.70;;;;;;4998346;28;20184;-86
2022/04/16 10:43:59;;;;;;;12.98;8.30;;;15.40;49.80;;;;;;5003965;28;20207;-85
2022/04/16 10:46:46;;;;;;;13.73;8.57;;;15.40;50.00;;;;;;5001804;28;20235;-87
2022/04/16 10:49:14;;;;;;;9.77;7.95;;;15.40;49.70;;;;;;4988480;28;20270;-85
2022/04/16 10:51:40;;;;;;;11.50;9.18;;;15.50;50.40;;;;;;4984765;28;20179;-85
2022/04/16 10:54:10;;;;;;;10.40;7.87;;;15.50;50.90;;;;;;5001249;28;20629;-86
2022/04/16 10:56:39;;;;;;;8.20;6.57;;;15.70;49.30;;;;;;5001880;28;20176;-87
2022/04/16 10:59:08;;;;;;;7.78;6.88;;;15.60;47.90;;;;;;4999384;28;20206;-84
2022/04/16 11:01:38;;;;;;;9.82;7.90;;;15.60;47.70;;;;;;4998503;28;20179;-86
2022/04/16 11:04:14;;;;;;;10.68;8.05;;;15.50;47.80;;;;;;4996958;28;20276;-85
2022/04/16 11:06:48;;;;;;;10.60;7.47;;;15.50;48.30;;;;;;4995698;28;20583;-86
2022/04/16 11:09:20;;;;;;;9.68;6.78;;;15.70;47.90;;;;;;4995487;28;20206;-86
2022/04/16 11:11:51;;;;;;;9.82;7.35;;;15.70;47.70;;;;;;4980335;28;20175;-85
2022/04/16 11:14:17;;;;;;;8.75;7.85;;;15.80;47.50;;;;;;4994770;28;20215;-85
2022/04/16 11:16:44;;;;;;;10.05;9.05;;;16.00;47.30;;;;;;4993591;28;20176;-86
2022/04/16 11:19:17;;;;;;;9.82;8.27;;;16.00;46.80;;;;;;4991702;28;20235;-85
2022/04/16 11:21:43;;;;;;;10.10;8.80;;;15.90;46.90;;;;;;4994704;28;20267;-85
2022/04/16 11:24:10;;;;;;;11.55;10.30;;;15.90;47.00;;;;;;4995815;28;20195;-85
2022/04/16 11:34:56;;;;;;;10.82;8.75;;;16.00;47.30;;;;;;4976181;28;20252;-85
2022/04/16 11:37:22;;;;;;;11.82;10.27;;;15.90;47.60;;;;;;4990823;28;20226;-86
2022/04/16 11:40:02;;;;;;;13.48;11.00;;;16.00;47.60;;;;;;4990628;28;20679;-85
2022/04/16 11:42:29;;;;;;;13.30;9.50;;;16.00;47.60;;;;;;4975865;28;20164;-85
2022/04/16 11:44:56;;;;;;;12.88;10.45;;;16.10;47.60;;;;;;4990270;28;20186;-86
2022/04/16 11:47:24;;;;;;;12.52;11.02;;;16.30;47.40;;;;;;4990243;28;20176;-85
2022/04/16 11:49:54;;;;;;;11.32;10.00;;;16.30;47.00;;;;;;4973876;28;20224;-85
2022/04/16 11:52:28;;;;;;;13.02;10.82;;;16.20;47.20;;;;;;4983595;28;20600;-86
2022/04/16 11:55:23;;;;;;;12.95;9.48;;;16.20;46.60;;;;;;4957663;28;20165;-87
2022/04/16 11:57:53;;;;;;;11.82;10.02;;;16.20;46.40;;;;;;4978024;28;20180;-88
2022/04/16 12:00:21;;;;;;;12.35;11.18;;;16.30;46.00;;;;;;4943856;29;20224;-88
2022/04/16 12:02:47;;;;;;;13.45;12.00;;;16.40;45.80;;;;;;4956468;29;20187;-88
2022/04/16 12:05:15;;;;;;;12.43;10.20;;;16.30;46.30;;;;;;4956907;29;20192;-88
2022/04/16 12:07:48;;;;;;;10.60;9.50;;;16.30;46.30;;;;;;4956022;29;20200;-88
2022/04/16 12:10:15;;;;;;;13.10;10.20;;;16.30;46.40;;;;;;4971485;28;20211;-88
2022/04/16 12:12:48;;;;;;;14.20;10.68;;;16.50;46.00;;;;;;4972074;28;20228;-88
2022/04/16 12:15:22;;;;;;;12.18;10.35;;;16.60;45.70;;;;;;4996544;28;20653;-86
2022/04/16 12:17:49;;;;;;;11.13;9.23;;;16.50;45.60;;;;;;4977012;28;20198;-88
2022/04/16 12:20:15;;;;;;;10.20;9.10;;;16.70;45.60;;;;;;4973797;28;20202;-88
2022/04/16 12:22:55;;;;;;;9.90;8.90;;;16.80;45.10;;;;;;4974141;28;20270;-86
2022/04/16 12:25:23;;;;;;;11.13;9.98;;;16.90;45.00;;;;;;4978338;28;20199;-87
2022/04/16 12:27:51;;;;;;;11.50;10.27;;;16.80;44.50;;;;;;4978466;28;20254;-85
2022/04/16 12:30:19;;;;;;;11.77;10.05;;;16.80;44.70;;;;;;4977795;28;20227;-85
2022/04/16 12:32:59;;;;;;;15.63;11.65;;;16.80;44.80;;;;;;4977195;28;20779;-85
2022/04/16 12:35:30;;;;;;;10.70;9.60;;;16.80;44.80;;;;;;4959509;28;20184;-87
2022/04/16 12:37:57;;;;;;;11.02;9.70;;;16.80;44.70;;;;;;4975820;28;20172;-85
2022/04/16 12:40:24;;;;;;;10.18;9.02;;;16.90;44.30;;;;;;4977864;28;20196;-85
2022/04/16 12:42:52;;;;;;;11.82;9.68;;;17.00;44.00;;;;;;4963119;28;20184;-85
2022/04/16 12:45:18;;;;;;;9.68;8.20;;;17.00;43.30;;;;;;4977533;28;20184;-85
2022/04/16 12:47:44;;;;;;;9.15;7.50;;;17.00;43.30;;;;;;4975634;28;20187;-87
2022/04/16 12:50:16;;;;;;;10.45;8.07;;;17.00;43.60;;;;;;4990374;28;20243;-86
2022/04/16 12:52:44;;;;;;;8.05;7.20;;;17.30;43.20;;;;;;4993642;28;20258;-86
2022/04/16 12:55:10;;;;;;;10.35;7.90;;;17.30;42.90;;;;;;4990340;28;20183;-86
2022/04/16 12:57:36;;;;;;;8.15;7.35;;;17.10;42.60;;;;;;4989635;28;20184;-87
2022/04/16 13:00:04;;;;;;;15.90;13.70;;;17.00;42.40;;;;;;4973376;28;20571;-86
2022/04/16 13:02:30;;;;;;;17.27;14.50;;;17.10;42.30;;;;;;4973797;28;20260;-88
2022/04/16 13:04:56;;;;;;;7.32;6.65;;;17.20;42.00;;;;;;4989904;28;20683;-86